< Typhoon 195610 1956 Season Typhoon 195612 >
Typhoon 195611 (DINAH)
General InformationTrack Information on Google Maps || Disaster Info.ResourceGoogle EarthGE AnimationAtom FeedGeoJSON
Detalied Best Track (Time Zone = UTC)
Year Month Day Hour Lat. Long. Pressure (hPa) Wind (kt) Class Image Chart
1956 8 30 18 20.3 132.4 996 0 2 -- Chart
1956 8 31 00 20.3 131.8 992 0 9 -- Chart
1956 8 31 06 20.0 129.8 990 0 9 -- Chart
1956 8 31 12 19.6 129.1 990 0 9 -- Chart
1956 8 31 18 19.4 128.6 988 0 9 -- Chart
1956 9 1 00 19.0 128.0 985 0 9 -- Chart
1956 9 1 06 19.3 127.2 980 0 9 -- Chart
1956 9 1 12 19.8 126.5 975 0 9 -- Chart
1956 9 1 18 20.0 126.1 970 0 9 -- Chart
1956 9 2 00 20.6 125.4 970 0 9 -- Chart
1956 9 2 06 21.3 124.9 970 0 9 -- Chart
1956 9 2 12 22.0 124.1 970 0 9 -- Chart
1956 9 2 18 22.9 123.1 970 0 9 -- Chart
1956 9 3 00 23.9 122.1 970 0 9 -- Chart
1956 9 3 06 24.6 121.1 970 0 9 -- Chart
1956 9 3 12 25.5 120.0 970 0 9 -- Chart
1956 9 3 18 26.5 119.0 978 0 9 -- Chart
1956 9 4 00 27.7 117.8 988 0 9 -- Chart
1956 9 4 06 29.0 117.0 990 0 9 -- Chart
1956 9 4 12 31.0 117.8 992 0 9 -- Chart
1956 9 4 18 32.7 118.5 992 0 9 -- Chart
1956 9 5 00 34.2 120.0 992 0 9 -- Chart
1956 9 5 06 36.0 122.7 990 0 9 -- Chart
1956 9 5 12 39.0 126.0 990 0 9 -- Chart
1956 9 5 18 43.3 129.4 986 0 9 -- Chart
1956 9 6 00 47.0 132.0 986 0 9 -- Chart
1956 9 6 06 49.0 133.0 990 0 2 -- Chart
1956 9 6 12 49.0 137.0 1000 0 2 -- Chart
Japan Meteorological Agency Best Track Data | Correction Date : 1989-06-01
< Typhoon 195610 1956 Season Typhoon 195612 >

Help